Time;durP1;ratioP1;P1;durP2;ratioP2;P2;SDS_P1;SDS_P2;PMS_P1;PMS_P2;Temp;Humidity;BMP_temperature;BMP_pressure;BME280_temperature;BME280_humidity;BME280_pressure;Samples;Min_cycle;Max_cycle;Signal;HPM_P1;HPM_P2
2022/12/21 00:01:55;;;;;;;80.60;24.20;;;;;;;;;;5069970;28;20055;-77
2022/12/21 00:04:22;;;;;;;78.22;22.50;;;;;;;;;;5068134;28;20056;-77
2022/12/21 00:06:49;;;;;;;76.25;22.92;;;;;;;;;;5066565;28;20525;-77
2022/12/21 00:09:15;;;;;;;68.28;22.00;;;;;;;;;;5068876;28;20059;-77
2022/12/21 00:11:42;;;;;;;71.80;21.70;;;;;;;;;;5068550;28;20461;-77
2022/12/21 00:14:08;;;;;;;76.30;21.27;;;;;;;;;;5050566;28;20558;-77
2022/12/21 00:16:36;;;;;;;69.43;20.63;;;;;;;;;;5069322;28;20065;-77
2022/12/21 00:19:03;;;;;;;80.97;21.88;;;;;;;;;;5068034;28;20520;-77
2022/12/21 00:21:31;;;;;;;60.67;20.20;;;;;;;;;;5068099;28;20103;-77
2022/12/21 00:23:58;;;;;;;77.25;21.05;;;;;;;;;;5049343;28;20063;-77
2022/12/21 00:26:26;;;;;;;67.57;20.45;;;;;;;;;;5068133;28;20057;-77
2022/12/21 00:28:56;;;;;;;74.65;21.70;;;;;;;;;;5067999;28;20132;-77
2022/12/21 00:31:26;;;;;;;67.77;22.10;;;;;;;;;;5068381;28;20053;-77
2022/12/21 00:33:53;;;;;;;80.28;22.13;;;;;;;;;;5050555;28;20304;-77
2022/12/21 00:36:21;;;;;;;75.57;21.45;;;;;;;;;;5067564;28;20099;-77
2022/12/21 00:38:47;;;;;;;79.70;22.60;;;;;;;;;;5067483;28;20534;-77
2022/12/21 00:41:15;;;;;;;75.97;22.17;;;;;;;;;;5067142;28;20053;-77
2022/12/21 00:43:42;;;;;;;82.90;22.80;;;;;;;;;;5060289;28;20061;-77
2022/12/21 00:46:14;;;;;;;97.93;25.88;;;;;;;;;;5067642;28;20480;-77
2022/12/21 00:48:40;;;;;;;108.85;25.02;;;;;;;;;;5067606;28;20578;-77
2022/12/21 00:51:07;;;;;;;119.15;27.90;;;;;;;;;;5067599;28;20839;-77
2022/12/21 00:53:34;;;;;;;105.00;25.58;;;;;;;;;;5067724;28;20060;-77
2022/12/21 00:56:01;;;;;;;107.35;25.25;;;;;;;;;;5066731;28;20053;-77
2022/12/21 00:58:29;;;;;;;80.28;24.60;;;;;;;;;;5067090;28;20511;-77
2022/12/21 01:00:56;;;;;;;85.22;24.20;;;;;;;;;;5068068;28;20162;-77
2022/12/21 01:03:23;;;;;;;75.60;22.77;;;;;;;;;;5068159;28;20049;-77
2022/12/21 01:05:51;;;;;;;91.45;24.58;;;;;;;;;;5067176;28;20085;-77
2022/12/21 01:08:18;;;;;;;95.32;22.23;;;;;;;;;;5068165;28;20057;-77
2022/12/21 01:10:44;;;;;;;66.18;20.65;;;;;;;;;;5067689;28;20053;-77
2022/12/21 01:13:11;;;;;;;65.88;20.90;;;;;;;;;;5065555;28;20500;-77
2022/12/21 01:15:45;;;;;;;65.75;19.90;;;;;;;;;;5067625;28;20151;-77
2022/12/21 01:18:12;;;;;;;71.63;19.67;;;;;;;;;;5067784;28;20092;-77
2022/12/21 01:20:44;;;;;;;72.60;21.05;;;;;;;;;;5065044;28;20049;-77
2022/12/21 01:23:10;;;;;;;70.05;20.52;;;;;;;;;;5067658;28;20049;-77
2022/12/21 01:25:37;;;;;;;62.45;18.27;;;;;;;;;;5066239;28;20068;-77
2022/12/21 01:28:03;;;;;;;67.57;19.02;;;;;;;;;;5068084;28;20067;-77
2022/12/21 01:30:30;;;;;;;66.63;19.08;;;;;;;;;;5066640;28;20060;-77
2022/12/21 01:32:56;;;;;;;76.68;19.98;;;;;;;;;;5066357;28;20052;-77
2022/12/21 01:35:23;;;;;;;72.43;19.85;;;;;;;;;;5067377;28;20053;-77
2022/12/21 01:37:49;;;;;;;111.35;22.20;;;;;;;;;;5067767;28;20523;-77
2022/12/21 01:40:15;;;;;;;81.60;20.38;;;;;;;;;;5067929;28;20595;-77
2022/12/21 01:42:42;;;;;;;59.25;18.50;;;;;;;;;;5067248;28;20053;-77
2022/12/21 01:45:14;;;;;;;69.85;19.35;;;;;;;;;;5066941;28;20053;-77
2022/12/21 01:47:43;;;;;;;67.15;19.38;;;;;;;;;;5066371;28;20057;-77
2022/12/21 01:50:29;;;;;;;64.70;18.33;;;;;;;;;;5067327;28;20073;-77
2022/12/21 01:52:57;;;;;;;59.10;18.23;;;;;;;;;;5063344;28;20542;-77
2022/12/21 01:55:24;;;;;;;75.70;19.35;;;;;;;;;;5065565;28;20053;-77
2022/12/21 01:57:50;;;;;;;56.28;18.52;;;;;;;;;;5049512;28;20064;-76
2022/12/21 02:00:17;;;;;;;54.47;16.98;;;;;;;;;;5066347;28;20087;-77
2022/12/21 02:02:48;;;;;;;67.00;18.67;;;;;;;;;;5068390;28;20049;-77
2022/12/21 02:05:21;;;;;;;61.92;18.48;;;;;;;;;;5065385;28;20591;-77
2022/12/21 02:07:47;;;;;;;57.85;17.70;;;;;;;;;;5066320;28;20498;-77
2022/12/21 02:10:14;;;;;;;64.70;19.25;;;;;;;;;;5066664;28;20135;-77
2022/12/21 02:12:41;;;;;;;79.57;19.15;;;;;;;;;;5066568;28;20048;-77
2022/12/21 02:15:08;;;;;;;57.45;18.70;;;;;;;;;;5065788;28;20057;-77
2022/12/21 02:17:34;;;;;;;61.58;18.48;;;;;;;;;;5070005;28;20151;-77
2022/12/21 02:20:19;;;;;;;59.92;19.13;;;;;;;;;;5066617;28;20056;-77
2022/12/21 02:23:04;;;;;;;56.20;18.02;;;;;;;;;;5066452;28;20065;-77
2022/12/21 02:25:45;;;;;;;59.05;18.48;;;;;;;;;;5047667;28;20061;-77
2022/12/21 02:28:12;;;;;;;68.90;19.13;;;;;;;;;;5065596;28;20522;-77
2022/12/21 02:30:55;;;;;;;61.42;18.17;;;;;;;;;;5066820;28;20057;-77
2022/12/21 02:33:27;;;;;;;56.70;18.20;;;;;;;;;;5049167;28;20519;-77
2022/12/21 02:36:12;;;;;;;57.78;18.67;;;;;;;;;;5051561;28;20435;-77
2022/12/21 02:38:42;;;;;;;67.65;17.52;;;;;;;;;;5065671;28;20408;-77
2022/12/21 02:41:16;;;;;;;64.72;18.27;;;;;;;;;;5046771;28;20057;-77
2022/12/21 02:44:13;;;;;;;58.05;16.90;;;;;;;;;;5067153;28;20056;-77
2022/12/21 02:46:51;;;;;;;70.15;18.40;;;;;;;;;;5066477;28;20061;-77
2022/12/21 02:49:28;;;;;;;77.97;19.10;;;;;;;;;;5066263;28;20463;-77
2022/12/21 02:52:03;;;;;;;76.38;20.83;;;;;;;;;;5048625;28;20500;-77
2022/12/21 02:54:29;;;;;;;68.97;19.75;;;;;;;;;;5065986;28;20049;-77
2022/12/21 02:56:56;;;;;;;66.28;18.23;;;;;;;;;;5078705;28;20052;-77
2022/12/21 02:59:26;;;;;;;71.65;20.42;;;;;;;;;;5069985;28;20068;-77
2022/12/21 03:01:58;;;;;;;60.97;18.88;;;;;;;;;;5066797;28;20471;-77
2022/12/21 03:04:28;;;;;;;65.25;18.17;;;;;;;;;;5073743;28;20063;-77
2022/12/21 03:07:06;;;;;;;65.35;19.70;;;;;;;;;;5089567;28;20424;-77
2022/12/21 03:09:32;;;;;;;63.65;18.30;;;;;;;;;;5086262;28;20053;-77
2022/12/21 03:12:02;;;;;;;67.43;18.88;;;;;;;;;;5080122;28;20336;-77
2022/12/21 03:14:50;;;;;;;68.28;19.42;;;;;;;;;;5052609;28;20049;-77
2022/12/21 03:17:26;;;;;;;70.60;19.70;;;;;;;;;;5068259;28;20209;-77
2022/12/21 03:19:57;;;;;;;61.38;17.67;;;;;;;;;;5069017;28;20065;-77
2022/12/21 03:22:28;;;;;;;70.82;18.65;;;;;;;;;;5070494;28;20517;-77
2022/12/21 03:24:57;;;;;;;67.07;17.85;;;;;;;;;;5068869;28;20053;-77
2022/12/21 03:27:30;;;;;;;67.15;18.55;;;;;;;;;;5048437;28;20053;-77
2022/12/21 03:30:00;;;;;;;81.07;19.10;;;;;;;;;;5068746;28;20072;-77
2022/12/21 03:32:34;;;;;;;71.13;20.35;;;;;;;;;;5072519;28;20880;-77
2022/12/21 03:35:01;;;;;;;80.60;20.90;;;;;;;;;;5082509;28;20049;-77
2022/12/21 03:37:30;;;;;;;88.03;21.67;;;;;;;;;;5070980;28;20500;-77
2022/12/21 03:39:58;;;;;;;83.75;21.25;;;;;;;;;;5081396;28;20067;-77
2022/12/21 03:42:33;;;;;;;69.90;19.83;;;;;;;;;;5069894;28;20110;-77
2022/12/21 03:45:02;;;;;;;76.60;20.48;;;;;;;;;;5074161;28;20063;-77
2022/12/21 03:47:39;;;;;;;77.82;20.05;;;;;;;;;;5071729;28;20277;-77
2022/12/21 03:50:08;;;;;;;70.57;20.05;;;;;;;;;;5069339;28;20053;-77
2022/12/21 03:52:40;;;;;;;79.40;20.52;;;;;;;;;;5067906;28;20445;-77
2022/12/21 03:55:09;;;;;;;63.25;19.83;;;;;;;;;;5068289;28;20112;-77
2022/12/21 03:57:36;;;;;;;94.75;21.15;;;;;;;;;;5068897;28;20056;-77
2022/12/21 04:00:04;;;;;;;123.43;22.00;;;;;;;;;;5072514;28;20495;-77
2022/12/21 04:02:39;;;;;;;61.33;18.55;;;;;;;;;;5068588;28;20516;-77
2022/12/21 04:05:24;;;;;;;75.40;19.73;;;;;;;;;;5068911;28;20060;-77
2022/12/21 04:07:51;;;;;;;78.82;20.85;;;;;;;;;;5068045;28;20079;-77
2022/12/21 04:10:19;;;;;;;97.10;21.38;;;;;;;;;;5068706;28;20064;-77
2022/12/21 04:12:46;;;;;;;86.63;21.58;;;;;;;;;;5068889;28;20065;-77
2022/12/21 04:15:17;;;;;;;73.68;20.95;;;;;;;;;;5068022;28;20049;-77
2022/12/21 04:17:44;;;;;;;94.07;21.42;;;;;;;;;;5068398;28;20504;-77
2022/12/21 04:20:12;;;;;;;93.57;21.63;;;;;;;;;;5068281;28;20459;-77
2022/12/21 04:28:22;;;;;;;119.57;22.85;;;;;;;;;;5069129;28;20061;-77
2022/12/21 04:31:08;;;;;;;90.82;21.55;;;;;;;;;;5071425;28;20065;-77
2022/12/21 04:33:34;;;;;;;94.40;23.40;;;;;;;;;;5068570;28;20148;-77
2022/12/21 04:38:46;;;;;;;115.75;24.88;;;;;;;;;;5067570;28;20472;-77
2022/12/21 04:41:12;;;;;;;132.32;27.73;;;;;;;;;;5068433;28;20106;-77
2022/12/21 04:43:39;;;;;;;164.18;28.55;;;;;;;;;;5067886;28;20053;-77
2022/12/21 04:46:11;;;;;;;172.77;28.00;;;;;;;;;;5068589;28;20806;-77
2022/12/21 04:48:38;;;;;;;202.57;31.27;;;;;;;;;;5067777;28;20057;-77
2022/12/21 04:51:05;;;;;;;204.82;30.33;;;;;;;;;;5055206;28;20046;-77
2022/12/21 04:53:32;;;;;;;243.38;32.88;;;;;;;;;;5048624;28;20511;-77
2022/12/21 04:55:58;;;;;;;283.92;31.85;;;;;;;;;;5066817;28;20455;-77
2022/12/21 04:58:25;;;;;;;250.65;30.45;;;;;;;;;;5067598;28;20064;-77
2022/12/21 05:00:51;;;;;;;335.85;34.72;;;;;;;;;;5067934;28;20447;-77
2022/12/21 05:03:19;;;;;;;354.35;36.08;;;;;;;;;;5067664;28;20589;-77
2022/12/21 05:05:46;;;;;;;307.90;34.78;;;;;;;;;;5048816;28;20587;-77
2022/12/21 05:08:13;;;;;;;452.90;40.65;;;;;;;;;;5082288;28;20491;-77
2022/12/21 05:10:47;;;;;;;411.33;41.80;;;;;;;;;;5066955;28;20595;-77
2022/12/21 05:13:13;;;;;;;422.02;41.42;;;;;;;;;;5049950;28;20654;-77
2022/12/21 05:15:39;;;;;;;328.73;35.13;;;;;;;;;;5050145;28;20057;-77
2022/12/21 05:18:06;;;;;;;393.55;38.10;;;;;;;;;;5066600;28;20068;-77
2022/12/21 05:20:32;;;;;;;342.15;35.65;;;;;;;;;;5068536;28;20068;-77
2022/12/21 05:22:58;;;;;;;431.63;39.03;;;;;;;;;;5067711;28;20136;-77
2022/12/21 05:25:25;;;;;;;400.15;39.70;;;;;;;;;;5066741;28;20428;-77
2022/12/21 05:27:51;;;;;;;431.73;40.38;;;;;;;;;;5030914;28;20641;-77
2022/12/21 05:30:17;;;;;;;428.75;41.85;;;;;;;;;;5068767;28;20064;-77
2022/12/21 05:32:44;;;;;;;369.52;39.75;;;;;;;;;;5067877;28;20511;-77
2022/12/21 05:35:10;;;;;;;379.05;39.40;;;;;;;;;;5074603;28;20139;-77
2022/12/21 05:37:42;;;;;;;381.83;38.58;;;;;;;;;;5075223;28;20052;-77
2022/12/21 05:40:08;;;;;;;384.42;38.50;;;;;;;;;;5068133;28;20064;-77
2022/12/21 05:42:34;;;;;;;337.65;37.00;;;;;;;;;;5066976;28;20107;-77
2022/12/21 05:45:01;;;;;;;288.95;35.60;;;;;;;;;;5066309;28;20468;-77
2022/12/21 05:47:27;;;;;;;293.65;36.50;;;;;;;;;;5068793;28;20174;-77
2022/12/21 05:49:53;;;;;;;330.70;36.25;;;;;;;;;;5067062;28;20133;-77
2022/12/21 05:52:20;;;;;;;327.30;37.42;;;;;;;;;;5066254;28;20136;-77
2022/12/21 05:54:46;;;;;;;347.33;37.72;;;;;;;;;;5067475;28;20057;-77
2022/12/21 05:57:13;;;;;;;303.95;34.65;;;;;;;;;;5066758;28;20148;-77
2022/12/21 05:59:39;;;;;;;310.30;38.53;;;;;;;;;;5065681;28;20512;-77
2022/12/21 06:02:05;;;;;;;317.00;37.08;;;;;;;;;;5062115;28;20057;-77
2022/12/21 06:04:32;;;;;;;237.65;33.15;;;;;;;;;;5084366;28;20052;-77
2022/12/21 06:06:58;;;;;;;232.88;33.10;;;;;;;;;;5071288;28;20580;-77
2022/12/21 06:09:25;;;;;;;224.13;34.33;;;;;;;;;;5086525;28;20044;-77
2022/12/21 06:11:51;;;;;;;214.75;33.05;;;;;;;;;;5087500;28;20052;-77
2022/12/21 06:14:17;;;;;;;188.30;31.73;;;;;;;;;;5080989;28;20055;-77
2022/12/21 06:16:43;;;;;;;207.02;32.03;;;;;;;;;;5070395;28;20056;-77
2022/12/21 06:19:10;;;;;;;200.65;32.30;;;;;;;;;;5065813;28;20111;-77
2022/12/21 06:21:36;;;;;;;192.63;31.05;;;;;;;;;;5066447;28;20532;-77
2022/12/21 06:24:02;;;;;;;191.60;32.70;;;;;;;;;;5067195;28;20057;-79
2022/12/21 06:26:29;;;;;;;170.05;31.90;;;;;;;;;;5056453;28;20057;-77
2022/12/21 06:28:55;;;;;;;177.80;31.92;;;;;;;;;;5038604;28;20312;-77
2022/12/21 06:31:22;;;;;;;169.23;31.80;;;;;;;;;;5066355;28;20545;-77
2022/12/21 06:33:48;;;;;;;171.15;32.00;;;;;;;;;;5066289;28;20057;-77
2022/12/21 06:36:15;;;;;;;167.95;31.13;;;;;;;;;;5061192;28;20049;-77
2022/12/21 06:38:41;;;;;;;179.05;33.15;;;;;;;;;;5059094;28;20057;-77
2022/12/21 06:41:09;;;;;;;170.73;31.52;;;;;;;;;;5065902;28;20164;-77
2022/12/21 06:43:36;;;;;;;182.20;33.08;;;;;;;;;;5061985;28;20637;-77
2022/12/21 06:46:04;;;;;;;161.35;33.20;;;;;;;;;;5066100;28;20522;-77
2022/12/21 06:48:31;;;;;;;155.35;32.65;;;;;;;;;;5066215;28;20052;-77
2022/12/21 06:50:59;;;;;;;152.02;32.50;;;;;;;;;;5065597;28;20096;-78
2022/12/21 06:53:26;;;;;;;147.68;33.80;;;;;;;;;;5065187;28;20056;-77
2022/12/21 06:56:00;;;;;;;146.80;33.33;;;;;;;;;;5065124;28;20057;-77
2022/12/21 06:58:26;;;;;;;169.55;35.22;;;;;;;;;;5065386;28;20196;-77
2022/12/21 07:00:53;;;;;;;161.25;36.08;;;;;;;;;;5048825;28;20517;-77
2022/12/21 07:03:21;;;;;;;145.60;33.65;;;;;;;;;;5058995;28;20057;-77
2022/12/21 07:05:48;;;;;;;147.15;34.10;;;;;;;;;;5047922;28;20052;-77
2022/12/21 07:08:14;;;;;;;136.60;32.90;;;;;;;;;;5063995;28;20535;-77
2022/12/21 07:10:40;;;;;;;151.80;34.25;;;;;;;;;;5047359;28;20049;-77
2022/12/21 07:13:08;;;;;;;144.93;33.75;;;;;;;;;;5065996;28;20504;-77
2022/12/21 07:15:36;;;;;;;140.32;33.00;;;;;;;;;;5063110;28;20128;-77
2022/12/21 07:18:02;;;;;;;133.35;32.80;;;;;;;;;;5061500;28;20144;-77
2022/12/21 07:20:28;;;;;;;144.73;32.72;;;;;;;;;;5068898;28;20076;-78
2022/12/21 07:22:55;;;;;;;134.32;33.28;;;;;;;;;;5063909;28;20075;-77
2022/12/21 07:25:21;;;;;;;136.90;34.20;;;;;;;;;;5062504;28;20516;-78
2022/12/21 07:27:48;;;;;;;136.00;33.03;;;;;;;;;;5065173;28;20479;-77
2022/12/21 07:30:14;;;;;;;118.05;33.38;;;;;;;;;;5064757;28;20080;-76
2022/12/21 07:32:41;;;;;;;123.63;31.15;;;;;;;;;;5064484;28;20586;-78
2022/12/21 07:35:08;;;;;;;124.53;32.65;;;;;;;;;;5066498;28;20516;-78
2022/12/21 07:37:35;;;;;;;119.10;32.45;;;;;;;;;;5064107;28;20060;-78
2022/12/21 07:40:03;;;;;;;119.70;31.20;;;;;;;;;;5039993;28;20065;-78
2022/12/21 07:42:30;;;;;;;130.90;32.47;;;;;;;;;;5033819;28;20099;-77
2022/12/21 07:44:56;;;;;;;127.38;33.75;;;;;;;;;;5062675;28;20057;-77
2022/12/21 07:47:23;;;;;;;124.90;33.13;;;;;;;;;;5062724;28;20595;-78
2022/12/21 07:49:49;;;;;;;123.45;33.65;;;;;;;;;;5059976;28;20053;-78
2022/12/21 07:52:15;;;;;;;118.65;32.45;;;;;;;;;;5071721;28;20060;-77
2022/12/21 07:54:41;;;;;;;121.35;33.65;;;;;;;;;;5069448;28;20057;-77
2022/12/21 07:57:15;;;;;;;122.55;34.33;;;;;;;;;;5068822;28;20520;-78
2022/12/21 07:59:41;;;;;;;121.35;34.33;;;;;;;;;;5068886;28;20080;-78
2022/12/21 08:02:08;;;;;;;107.47;31.58;;;;;;;;;;5069694;28;20049;-78
2022/12/21 08:04:34;;;;;;;112.25;32.05;;;;;;;;;;5063262;28;20152;-78
2022/12/21 08:07:01;;;;;;;127.10;35.17;;;;;;;;;;5065265;28;20053;-78
2022/12/21 08:09:27;;;;;;;114.95;32.80;;;;;;;;;;5065306;28;20057;-77
2022/12/21 08:11:53;;;;;;;121.90;34.83;;;;;;;;;;5068499;28;20057;-78
2022/12/21 08:14:20;;;;;;;123.05;33.85;;;;;;;;;;5053408;28;20053;-78
2022/12/21 08:16:46;;;;;;;107.35;33.03;;;;;;;;;;5066423;28;20248;-78
2022/12/21 08:19:13;;;;;;;109.93;33.67;;;;;;;;;;5067120;28;20092;-78
2022/12/21 08:21:40;;;;;;;103.85;32.92;;;;;;;;;;5066849;28;20127;-77
2022/12/21 08:24:06;;;;;;;104.07;31.33;;;;;;;;;;5068092;28;20056;-77
2022/12/21 08:26:32;;;;;;;100.50;33.17;;;;;;;;;;5068318;28;20060;-78
2022/12/21 08:28:59;;;;;;;112.82;34.70;;;;;;;;;;5064888;28;20496;-77
2022/12/21 08:31:27;;;;;;;92.53;31.75;;;;;;;;;;5065280;28;20139;-77
2022/12/21 08:33:53;;;;;;;93.05;33.47;;;;;;;;;;5070241;28;20115;-77
2022/12/21 08:36:21;;;;;;;102.55;34.63;;;;;;;;;;5066164;28;20060;-77
2022/12/21 08:38:48;;;;;;;93.60;31.55;;;;;;;;;;5066498;28;20088;-77
2022/12/21 08:41:34;;;;;;;99.28;32.15;;;;;;;;;;5064915;28;20064;-78
2022/12/21 08:44:01;;;;;;;86.55;30.13;;;;;;;;;;5068778;28;20188;-77
2022/12/21 08:46:27;;;;;;;103.00;33.08;;;;;;;;;;5059655;28;20049;-78
2022/12/21 08:48:54;;;;;;;102.20;32.95;;;;;;;;;;5067066;28;20049;-77
2022/12/21 08:51:20;;;;;;;90.35;31.27;;;;;;;;;;5065919;28;20552;-76
2022/12/21 08:53:46;;;;;;;97.47;33.75;;;;;;;;;;5068305;28;20057;-77
2022/12/21 08:56:18;;;;;;;102.32;32.78;;;;;;;;;;5045894;28;20057;-77
2022/12/21 08:58:44;;;;;;;95.38;31.73;;;;;;;;;;5066931;28;20059;-77
2022/12/21 09:01:10;;;;;;;79.90;30.77;;;;;;;;;;5050738;28;20064;-77
2022/12/21 09:03:37;;;;;;;91.25;32.08;;;;;;;;;;5069051;28;20084;-77
2022/12/21 09:06:03;;;;;;;82.93;30.13;;;;;;;;;;5065921;28;20566;-77
2022/12/21 09:08:34;;;;;;;;;;;;;;;;;;5066711;28;20060;-77
2022/12/21 09:11:02;;;;;;;86.18;29.40;;;;;;;;;;5066764;28;45014;-77
2022/12/21 09:13:28;;;;;;;83.03;31.27;;;;;;;;;;5049747;28;20053;-77
2022/12/21 09:15:55;;;;;;;83.93;31.02;;;;;;;;;;5043219;28;20508;-77
2022/12/21 09:18:21;;;;;;;79.70;31.77;;;;;;;;;;5063101;28;20053;-77
2022/12/21 09:20:48;;;;;;;75.28;29.58;;;;;;;;;;5066844;28;20053;-77
2022/12/21 09:23:14;;;;;;;72.38;29.52;;;;;;;;;;5046066;28;20140;-77
2022/12/21 09:25:41;;;;;;;76.13;26.52;;;;;;;;;;5067240;28;20083;-77
2022/12/21 09:28:07;;;;;;;65.85;26.45;;;;;;;;;;5066967;28;20512;-77
2022/12/21 09:30:34;;;;;;;66.78;26.60;;;;;;;;;;5063939;28;20057;-77
2022/12/21 09:33:00;;;;;;;63.15;24.23;;;;;;;;;;5065130;28;20064;-78
2022/12/21 09:35:26;;;;;;;68.18;25.10;;;;;;;;;;5067781;28;20485;-77
2022/12/21 09:37:53;;;;;;;60.22;25.08;;;;;;;;;;5067377;28;20753;-77
2022/12/21 09:40:19;;;;;;;64.40;26.58;;;;;;;;;;5067810;28;20053;-77
2022/12/21 09:43:01;;;;;;;68.53;27.15;;;;;;;;;;5060474;28;20049;-78
2022/12/21 09:45:47;;;;;;;70.13;26.40;;;;;;;;;;5066031;28;20057;-77
2022/12/21 09:48:17;;;;;;;60.80;25.48;;;;;;;;;;5054165;28;20136;-78
2022/12/21 09:50:53;;;;;;;72.20;28.13;;;;;;;;;;5065121;28;20063;-77
2022/12/21 09:53:25;;;;;;;63.92;26.05;;;;;;;;;;5067733;28;20573;-77
2022/12/21 09:55:56;;;;;;;60.30;25.25;;;;;;;;;;5063049;28;20508;-78
2022/12/21 09:58:25;;;;;;;61.53;27.20;;;;;;;;;;5064045;28;20056;-77
2022/12/21 10:00:55;;;;;;;64.22;25.83;;;;;;;;;;5068120;28;20083;-78
2022/12/21 10:03:27;;;;;;;71.10;28.65;;;;;;;;;;5065381;28;20223;-77
2022/12/21 10:06:16;;;;;;;64.65;25.75;;;;;;;;;;5066740;28;20061;-77
2022/12/21 10:08:43;;;;;;;59.95;25.05;;;;;;;;;;5059907;28;20089;-77
2022/12/21 10:11:12;;;;;;;58.20;24.42;;;;;;;;;;5059923;28;20084;-77
2022/12/21 10:13:48;;;;;;;58.55;23.65;;;;;;;;;;5062998;28;20065;-77
2022/12/21 10:16:20;;;;;;;;;;;;;;;;;;5067771;28;20057;-78
2022/12/21 10:18:50;;;;;;;48.15;20.48;;;;;;;;;;5065581;28;44531;-77
2022/12/21 10:21:35;;;;;;;47.10;22.08;;;;;;;;;;5046189;28;20060;-77
2022/12/21 10:24:03;;;;;;;48.65;21.10;;;;;;;;;;5073021;28;20081;-77
2022/12/21 10:26:32;;;;;;;40.15;18.40;;;;;;;;;;5047276;28;20057;-77
2022/12/21 10:29:06;;;;;;;49.20;18.92;;;;;;;;;;5046345;28;20058;-77
2022/12/21 10:31:34;;;;;;;46.78;19.35;;;;;;;;;;5048007;28;20068;-77
2022/12/21 10:34:01;;;;;;;49.80;18.77;;;;;;;;;;5060153;28;20111;-77
2022/12/21 10:36:34;;;;;;;45.42;18.15;;;;;;;;;;5065137;28;20599;-76
2022/12/21 10:39:01;;;;;;;42.58;17.23;;;;;;;;;;5055542;28;20504;-77
2022/12/21 10:41:29;;;;;;;46.08;17.70;;;;;;;;;;5043313;28;20057;-77
2022/12/21 10:43:58;;;;;;;44.90;17.80;;;;;;;;;;5058321;28;20049;-77
2022/12/21 10:46:28;;;;;;;44.10;17.35;;;;;;;;;;5061887;28;20056;-76
2022/12/21 10:48:56;;;;;;;45.90;18.05;;;;;;;;;;5051488;28;20454;-77
2022/12/21 10:51:25;;;;;;;44.42;18.40;;;;;;;;;;5065321;28;20152;-77
2022/12/21 10:53:59;;;;;;;42.67;17.88;;;;;;;;;;5047658;28;20085;-77
2022/12/21 10:56:26;;;;;;;39.30;16.70;;;;;;;;;;5065351;28;20057;-78
2022/12/21 10:58:53;;;;;;;44.22;18.67;;;;;;;;;;5062366;28;20052;-78
2022/12/21 11:01:28;;;;;;;44.88;18.20;;;;;;;;;;5062755;28;20060;-78
2022/12/21 11:04:07;;;;;;;46.55;18.92;;;;;;;;;;5047987;28;20054;-78
2022/12/21 11:06:34;;;;;;;43.17;18.25;;;;;;;;;;5063260;28;20057;-78
2022/12/21 11:09:00;;;;;;;50.92;19.20;;;;;;;;;;5059895;28;20165;-77
2022/12/21 11:11:29;;;;;;;48.40;19.45;;;;;;;;;;5061454;28;20073;-77
2022/12/21 11:13:57;;;;;;;52.80;20.40;;;;;;;;;;5066739;28;20092;-77
2022/12/21 11:16:33;;;;;;;51.45;20.50;;;;;;;;;;5074005;28;20057;-78
2022/12/21 11:19:00;;;;;;;50.20;18.90;;;;;;;;;;5065907;28;20060;-78
2022/12/21 11:21:27;;;;;;;55.20;19.33;;;;;;;;;;5064240;28;20056;-78
2022/12/21 11:24:14;;;;;;;57.05;20.75;;;;;;;;;;5065695;28;20527;-78
2022/12/21 11:26:42;;;;;;;55.67;20.88;;;;;;;;;;5066357;28;20052;-77
2022/12/21 11:29:16;;;;;;;53.10;20.52;;;;;;;;;;5068655;28;20140;-77
2022/12/21 11:31:49;;;;;;;54.85;21.98;;;;;;;;;;5070075;28;20508;-77
2022/12/21 11:34:24;;;;;;;49.45;22.92;;;;;;;;;;5034005;28;20067;-77
2022/12/21 11:36:59;;;;;;;56.25;23.63;;;;;;;;;;5049461;28;20057;-77
2022/12/21 11:39:37;;;;;;;54.17;23.63;;;;;;;;;;5058562;28;20057;-78
2022/12/21 11:42:14;;;;;;;58.03;23.92;;;;;;;;;;5066799;28;20057;-77
2022/12/21 11:44:40;;;;;;;60.22;23.90;;;;;;;;;;5068398;28;20057;-78
2022/12/21 11:47:15;;;;;;;60.90;24.83;;;;;;;;;;5067626;28;20059;-78
2022/12/21 11:49:46;;;;;;;62.40;25.08;;;;;;;;;;5069455;28;20060;-78
2022/12/21 11:52:31;;;;;;;56.55;24.05;;;;;;;;;;5067787;28;20104;-79
2022/12/21 11:55:16;;;;;;;57.30;24.17;;;;;;;;;;5065842;28;20064;-77
2022/12/21 11:58:06;;;;;;;69.93;25.20;;;;;;;;;;5066087;28;20571;-77
2022/12/21 12:00:39;;;;;;;59.50;24.80;;;;;;;;;;5068338;28;20053;-77
2022/12/21 12:03:37;;;;;;;57.10;24.23;;;;;;;;;;5069047;28;20661;-77
2022/12/21 12:06:22;;;;;;;58.60;23.92;;;;;;;;;;5066739;28;20049;-78
2022/12/21 12:09:07;;;;;;;57.47;24.55;;;;;;;;;;5067858;28;20056;-78
2022/12/21 12:11:34;;;;;;;58.05;23.02;;;;;;;;;;5057023;28;20557;-78
2022/12/21 12:14:00;;;;;;;55.60;24.77;;;;;;;;;;5061413;28;20140;-77
2022/12/21 12:16:30;;;;;;;53.13;22.85;;;;;;;;;;5069045;28;20057;-77
2022/12/21 12:18:57;;;;;;;55.23;22.40;;;;;;;;;;5065445;28;20064;-77
2022/12/21 12:21:29;;;;;;;51.17;22.40;;;;;;;;;;5069503;28;20057;-78
2022/12/21 12:23:58;;;;;;;56.28;24.95;;;;;;;;;;5051460;28;20060;-77
2022/12/21 12:26:30;;;;;;;56.03;23.55;;;;;;;;;;5064296;28;20736;-78
2022/12/21 12:29:08;;;;;;;52.08;22.38;;;;;;;;;;5064490;28;20049;-77
2022/12/21 12:31:47;;;;;;;53.80;21.42;;;;;;;;;;5063305;28;20144;-79
2022/12/21 12:34:37;;;;;;;50.45;21.08;;;;;;;;;;5068361;28;20081;-80
2022/12/21 12:37:30;;;;;;;83.82;43.63;;;;;;;;;;5037857;28;20052;-80
2022/12/21 12:40:06;;;;;;;49.13;19.73;;;;;;;;;;5067051;28;20072;-78
2022/12/21 12:43:01;;;;;;;47.92;19.17;;;;;;;;;;5067478;28;20538;-78
2022/12/21 12:45:34;;;;;;;43.60;19.48;;;;;;;;;;4992066;28;20138;-80
2022/12/21 12:48:09;;;;;;;44.72;20.10;;;;;;;;;;5060818;28;20056;-79
2022/12/21 12:50:39;;;;;;;47.08;20.70;;;;;;;;;;5066560;28;20586;-79
2022/12/21 12:53:08;;;;;;;44.35;18.35;;;;;;;;;;5064765;28;20095;-78
2022/12/21 12:55:43;;;;;;;38.50;18.13;;;;;;;;;;5060137;28;20598;-79
2022/12/21 12:58:15;;;;;;;40.13;18.13;;;;;;;;;;5066202;28;20060;-78
2022/12/21 13:01:01;;;;;;;38.03;18.52;;;;;;;;;;5061334;28;20050;-78
2022/12/21 13:03:47;;;;;;;38.53;17.85;;;;;;;;;;5019441;28;20053;-78
2022/12/21 13:06:13;;;;;;;42.20;17.25;;;;;;;;;;5063295;28;20049;-79
2022/12/21 13:08:58;;;;;;;33.22;15.00;;;;;;;;;;5064870;28;20049;-79
2022/12/21 13:11:24;;;;;;;34.92;15.65;;;;;;;;;;5049731;28;20575;-78
2022/12/21 13:13:59;;;;;;;33.97;15.57;;;;;;;;;;5050403;28;20604;-78
2022/12/21 13:16:42;;;;;;;33.13;15.23;;;;;;;;;;5067515;28;20049;-77
2022/12/21 13:19:11;;;;;;;28.92;14.60;;;;;;;;;;5060264;28;20412;-77
2022/12/21 13:21:38;;;;;;;39.17;15.45;;;;;;;;;;5064598;28;20067;-78
2022/12/21 13:24:08;;;;;;;34.28;15.32;;;;;;;;;;5065816;28;20091;-77
2022/12/21 13:26:38;;;;;;;33.13;14.48;;;;;;;;;;5067338;28;20048;-78
2022/12/21 13:29:16;;;;;;;30.10;15.10;;;;;;;;;;5058694;28;20061;-78
2022/12/21 13:31:46;;;;;;;32.72;15.18;;;;;;;;;;5059377;28;20060;-78
2022/12/21 13:34:31;;;;;;;30.33;14.65;;;;;;;;;;5064429;28;20150;-78
2022/12/21 13:37:01;;;;;;;32.17;14.45;;;;;;;;;;5058076;28;20535;-78
2022/12/21 13:39:37;;;;;;;29.05;14.23;;;;;;;;;;5057186;28;20057;-77
2022/12/21 13:42:24;;;;;;;29.23;14.70;;;;;;;;;;5067502;28;20486;-77
2022/12/21 13:44:55;;;;;;;35.67;15.10;;;;;;;;;;5058320;28;20052;-77
2022/12/21 13:47:21;;;;;;;;;;;;;;;;;;5065960;28;20052;-78
2022/12/21 13:49:57;;;;;;;29.65;13.52;;;;;;;;;;5063493;28;47219;-77
2022/12/21 13:52:26;;;;;;;27.33;12.88;;;;;;;;;;5063198;28;20376;-78
2022/12/21 13:55:11;;;;;;;32.25;14.45;;;;;;;;;;5066764;28;20124;-77
2022/12/21 13:57:53;;;;;;;39.05;15.38;;;;;;;;;;5064129;28;20552;-77
2022/12/21 14:00:22;;;;;;;29.13;14.13;;;;;;;;;;5067440;28;20078;-77
2022/12/21 14:02:51;;;;;;;30.02;14.15;;;;;;;;;;5047575;28;20061;-77
2022/12/21 14:05:27;;;;;;;31.63;14.80;;;;;;;;;;5063746;28;20136;-77
2022/12/21 14:08:23;;;;;;;29.25;15.13;;;;;;;;;;5064136;28;20346;-77
2022/12/21 14:11:07;;;;;;;31.73;15.13;;;;;;;;;;5056798;28;20052;-77
2022/12/21 14:13:52;;;;;;;35.28;16.02;;;;;;;;;;5066522;28;20140;-77
2022/12/21 14:16:23;;;;;;;32.15;15.40;;;;;;;;;;5061333;28;20052;-77
2022/12/21 14:18:49;;;;;;;;;;;;;;;;;;5053607;28;20136;-78
2022/12/21 14:21:24;;;;;;;33.97;15.07;;;;;;;;;;5059660;28;43635;-77
2022/12/21 14:23:58;;;;;;;35.97;14.90;;;;;;;;;;5064581;28;20843;-77
2022/12/21 14:26:32;;;;;;;37.17;14.48;;;;;;;;;;5060184;28;20096;-77
2022/12/21 14:29:11;;;;;;;33.50;15.40;;;;;;;;;;5063427;28;20053;-78
2022/12/21 14:31:46;;;;;;;33.30;15.27;;;;;;;;;;5065010;28;20432;-77
2022/12/21 14:34:13;;;;;;;34.28;15.63;;;;;;;;;;5043000;28;20049;-77
2022/12/21 14:37:17;;;;;;;32.55;15.13;;;;;;;;;;5058251;28;20060;-77
2022/12/21 14:39:44;;;;;;;43.42;16.40;;;;;;;;;;5061872;28;20575;-77
2022/12/21 14:42:29;;;;;;;33.45;16.17;;;;;;;;;;5066491;28;20563;-77